sensor_id;sensor_type;location;lat;lon;timestamp;P1;durP1;ratioP1;P2;durP2;ratioP2
36391;SDS011;22639;42.690;23.356;2022-12-18T00:01:48;13.30;;;8.87;;
36391;SDS011;22639;42.690;23.356;2022-12-18T00:04:15;10.67;;;8.30;;
36391;SDS011;22639;42.690;23.356;2022-12-18T00:06:43;10.53;;;7.60;;
36391;SDS011;22639;42.690;23.356;2022-12-18T00:09:08;11.47;;;7.67;;
36391;SDS011;22639;42.690;23.356;2022-12-18T00:11:34;9.97;;;6.87;;
36391;SDS011;22639;42.690;23.356;2022-12-18T00:13:59;9.80;;;6.80;;
36391;SDS011;22639;42.690;23.356;2022-12-18T00:16:25;11.07;;;7.97;;
36391;SDS011;22639;42.690;23.356;2022-12-18T00:18:52;9.63;;;7.70;;
36391;SDS011;22639;42.690;23.356;2022-12-18T00:21:18;10.63;;;7.53;;
36391;SDS011;22639;42.690;23.356;2022-12-18T00:23:44;10.07;;;7.17;;
36391;SDS011;22639;42.690;23.356;2022-12-18T00:26:16;10.37;;;7.97;;
36391;SDS011;22639;42.690;23.356;2022-12-18T00:28:42;7.83;;;5.80;;
36391;SDS011;22639;42.690;23.356;2022-12-18T00:31:08;13.63;;;8.60;;
36391;SDS011;22639;42.690;23.356;2022-12-18T00:33:34;10.40;;;6.87;;
36391;SDS011;22639;42.690;23.356;2022-12-18T00:36:03;12.30;;;7.50;;
36391;SDS011;22639;42.690;23.356;2022-12-18T00:38:29;11.33;;;7.60;;
36391;SDS011;22639;42.690;23.356;2022-12-18T00:40:54;13.40;;;9.20;;
36391;SDS011;22639;42.690;23.356;2022-12-18T00:43:19;13.10;;;8.23;;
36391;SDS011;22639;42.690;23.356;2022-12-18T00:45:45;11.57;;;7.73;;
36391;SDS011;22639;42.690;23.356;2022-12-18T00:48:10;13.00;;;7.53;;
36391;SDS011;22639;42.690;23.356;2022-12-18T00:50:35;10.30;;;7.07;;
36391;SDS011;22639;42.690;23.356;2022-12-18T00:53:00;10.17;;;8.23;;
36391;SDS011;22639;42.690;23.356;2022-12-18T00:55:26;13.60;;;9.27;;
36391;SDS011;22639;42.690;23.356;2022-12-18T00:57:51;7.73;;;6.07;;
36391;SDS011;22639;42.690;23.356;2022-12-18T01:00:17;9.27;;;6.87;;
36391;SDS011;22639;42.690;23.356;2022-12-18T01:02:42;12.03;;;7.70;;
36391;SDS011;22639;42.690;23.356;2022-12-18T01:05:09;10.53;;;7.57;;
36391;SDS011;22639;42.690;23.356;2022-12-18T01:07:34;11.07;;;7.67;;
36391;SDS011;22639;42.690;23.356;2022-12-18T01:09:59;11.33;;;7.87;;
36391;SDS011;22639;42.690;23.356;2022-12-18T01:12:25;12.20;;;8.13;;
36391;SDS011;22639;42.690;23.356;2022-12-18T01:14:50;12.70;;;8.37;;
36391;SDS011;22639;42.690;23.356;2022-12-18T01:17:15;12.00;;;8.50;;
36391;SDS011;22639;42.690;23.356;2022-12-18T01:19:40;10.83;;;8.00;;
36391;SDS011;22639;42.690;23.356;2022-12-18T01:22:06;9.33;;;6.07;;
36391;SDS011;22639;42.690;23.356;2022-12-18T01:24:32;11.93;;;8.20;;
36391;SDS011;22639;42.690;23.356;2022-12-18T01:26:57;11.57;;;8.33;;
36391;SDS011;22639;42.690;23.356;2022-12-18T01:29:23;11.60;;;7.40;;
36391;SDS011;22639;42.690;23.356;2022-12-18T01:31:48;12.20;;;8.83;;
36391;SDS011;22639;42.690;23.356;2022-12-18T01:34:13;14.33;;;9.23;;
36391;SDS011;22639;42.690;23.356;2022-12-18T01:36:39;9.33;;;6.10;;
36391;SDS011;22639;42.690;23.356;2022-12-18T01:39:06;11.10;;;7.17;;
36391;SDS011;22639;42.690;23.356;2022-12-18T01:41:32;12.90;;;8.90;;
36391;SDS011;22639;42.690;23.356;2022-12-18T01:46:59;11.70;;;8.83;;
36391;SDS011;22639;42.690;23.356;2022-12-18T01:49:25;10.50;;;7.10;;
36391;SDS011;22639;42.690;23.356;2022-12-18T01:51:50;15.07;;;9.40;;
36391;SDS011;22639;42.690;23.356;2022-12-18T01:54:16;14.93;;;9.57;;
36391;SDS011;22639;42.690;23.356;2022-12-18T01:56:41;14.10;;;8.63;;
36391;SDS011;22639;42.690;23.356;2022-12-18T01:59:06;13.57;;;9.27;;
36391;SDS011;22639;42.690;23.356;2022-12-18T02:01:32;10.57;;;6.83;;
36391;SDS011;22639;42.690;23.356;2022-12-18T02:04:18;13.53;;;9.93;;
36391;SDS011;22639;42.690;23.356;2022-12-18T02:06:44;14.67;;;9.10;;
36391;SDS011;22639;42.690;23.356;2022-12-18T02:09:11;11.17;;;8.27;;
36391;SDS011;22639;42.690;23.356;2022-12-18T02:16:43;11.07;;;7.33;;
36391;SDS011;22639;42.690;23.356;2022-12-18T02:24:45;10.43;;;7.00;;
36391;SDS011;22639;42.690;23.356;2022-12-18T02:27:12;11.87;;;6.93;;
36391;SDS011;22639;42.690;23.356;2022-12-18T02:29:48;11.07;;;7.53;;
36391;SDS011;22639;42.690;23.356;2022-12-18T02:32:16;11.83;;;8.20;;
36391;SDS011;22639;42.690;23.356;2022-12-18T02:34:42;10.60;;;7.50;;
36391;SDS011;22639;42.690;23.356;2022-12-18T02:37:11;10.73;;;7.70;;
36391;SDS011;22639;42.690;23.356;2022-12-18T02:39:38;10.43;;;7.80;;
36391;SDS011;22639;42.690;23.356;2022-12-18T02:42:03;11.93;;;7.63;;
36391;SDS011;22639;42.690;23.356;2022-12-18T02:44:33;13.47;;;8.77;;
36391;SDS011;22639;42.690;23.356;2022-12-18T02:46:58;11.63;;;6.93;;
36391;SDS011;22639;42.690;23.356;2022-12-18T02:57:36;10.30;;;6.97;;
36391;SDS011;22639;42.690;23.356;2022-12-18T03:00:11;9.67;;;7.57;;
36391;SDS011;22639;42.690;23.356;2022-12-18T03:08:26;10.23;;;7.47;;
36391;SDS011;22639;42.690;23.356;2022-12-18T03:10:59;10.23;;;7.40;;
36391;SDS011;22639;42.690;23.356;2022-12-18T03:13:31;13.27;;;8.00;;
36391;SDS011;22639;42.690;23.356;2022-12-18T03:15:58;11.67;;;8.53;;
36391;SDS011;22639;42.690;23.356;2022-12-18T03:18:58;10.10;;;6.33;;
36391;SDS011;22639;42.690;23.356;2022-12-18T03:21:17;10.57;;;7.90;;
36391;SDS011;22639;42.690;23.356;2022-12-18T03:23:46;9.23;;;6.47;;
36391;SDS011;22639;42.690;23.356;2022-12-18T03:26:13;12.43;;;8.17;;
36391;SDS011;22639;42.690;23.356;2022-12-18T03:28:41;12.93;;;8.30;;
36391;SDS011;22639;42.690;23.356;2022-12-18T03:31:07;12.77;;;8.87;;
36391;SDS011;22639;42.690;23.356;2022-12-18T03:33:35;12.40;;;8.67;;
36391;SDS011;22639;42.690;23.356;2022-12-18T03:36:02;8.90;;;6.17;;
36391;SDS011;22639;42.690;23.356;2022-12-18T03:38:28;11.67;;;7.77;;
36391;SDS011;22639;42.690;23.356;2022-12-18T03:46:02;9.17;;;6.80;;
36391;SDS011;22639;42.690;23.356;2022-12-18T03:48:29;12.23;;;7.93;;
36391;SDS011;22639;42.690;23.356;2022-12-18T03:50:56;12.40;;;7.77;;
36391;SDS011;22639;42.690;23.356;2022-12-18T03:55:50;12.10;;;7.67;;
36391;SDS011;22639;42.690;23.356;2022-12-18T03:58:17;14.53;;;8.37;;
36391;SDS011;22639;42.690;23.356;2022-12-18T04:00:43;13.07;;;8.47;;
36391;SDS011;22639;42.690;23.356;2022-12-18T04:03:09;14.07;;;7.87;;
36391;SDS011;22639;42.690;23.356;2022-12-18T04:05:35;10.30;;;6.50;;
36391;SDS011;22639;42.690;23.356;2022-12-18T04:08:00;12.80;;;8.37;;
36391;SDS011;22639;42.690;23.356;2022-12-18T04:10:26;11.43;;;7.63;;
36391;SDS011;22639;42.690;23.356;2022-12-18T04:12:55;14.63;;;9.07;;
36391;SDS011;22639;42.690;23.356;2022-12-18T04:15:20;11.03;;;7.40;;
36391;SDS011;22639;42.690;23.356;2022-12-18T04:17:49;13.17;;;9.13;;
36391;SDS011;22639;42.690;23.356;2022-12-18T04:20:14;12.73;;;8.63;;
36391;SDS011;22639;42.690;23.356;2022-12-18T04:22:40;8.57;;;6.77;;
36391;SDS011;22639;42.690;23.356;2022-12-18T04:25:05;12.53;;;9.10;;
36391;SDS011;22639;42.690;23.356;2022-12-18T04:27:30;15.07;;;9.23;;
36391;SDS011;22639;42.690;23.356;2022-12-18T04:29:55;14.90;;;10.13;;
36391;SDS011;22639;42.690;23.356;2022-12-18T04:32:21;15.07;;;9.37;;
36391;SDS011;22639;42.690;23.356;2022-12-18T04:34:46;13.37;;;8.70;;
36391;SDS011;22639;42.690;23.356;2022-12-18T04:37:12;13.47;;;9.10;;
36391;SDS011;22639;42.690;23.356;2022-12-18T04:39:37;15.43;;;9.47;;
36391;SDS011;22639;42.690;23.356;2022-12-18T04:42:02;9.90;;;7.00;;
36391;SDS011;22639;42.690;23.356;2022-12-18T04:44:27;13.73;;;8.70;;
36391;SDS011;22639;42.690;23.356;2022-12-18T04:46:53;21.60;;;11.47;;
36391;SDS011;22639;42.690;23.356;2022-12-18T04:49:18;13.37;;;9.30;;
36391;SDS011;22639;42.690;23.356;2022-12-18T04:51:43;15.40;;;9.53;;
36391;SDS011;22639;42.690;23.356;2022-12-18T04:54:09;12.73;;;7.73;;
36391;SDS011;22639;42.690;23.356;2022-12-18T04:56:34;15.67;;;10.37;;
36391;SDS011;22639;42.690;23.356;2022-12-18T04:58:59;18.67;;;10.27;;
36391;SDS011;22639;42.690;23.356;2022-12-18T05:01:24;15.73;;;10.73;;
36391;SDS011;22639;42.690;23.356;2022-12-18T05:03:50;17.33;;;11.40;;
36391;SDS011;22639;42.690;23.356;2022-12-18T05:06:16;14.97;;;9.50;;
36391;SDS011;22639;42.690;23.356;2022-12-18T05:08:41;14.83;;;9.73;;
36391;SDS011;22639;42.690;23.356;2022-12-18T05:11:07;15.93;;;10.17;;
36391;SDS011;22639;42.690;23.356;2022-12-18T05:13:33;15.07;;;9.93;;
36391;SDS011;22639;42.690;23.356;2022-12-18T05:15:59;18.97;;;11.60;;
36391;SDS011;22639;42.690;23.356;2022-12-18T05:18:24;19.27;;;11.43;;
36391;SDS011;22639;42.690;23.356;2022-12-18T05:20:50;19.53;;;12.37;;
36391;SDS011;22639;42.690;23.356;2022-12-18T05:23:15;18.37;;;10.73;;
36391;SDS011;22639;42.690;23.356;2022-12-18T05:25:41;16.57;;;10.27;;
36391;SDS011;22639;42.690;23.356;2022-12-18T05:28:06;20.27;;;12.17;;
36391;SDS011;22639;42.690;23.356;2022-12-18T05:30:31;13.53;;;9.30;;
36391;SDS011;22639;42.690;23.356;2022-12-18T05:32:56;15.63;;;10.00;;
36391;SDS011;22639;42.690;23.356;2022-12-18T05:35:22;14.63;;;9.80;;
36391;SDS011;22639;42.690;23.356;2022-12-18T05:37:47;15.73;;;10.33;;
36391;SDS011;22639;42.690;23.356;2022-12-18T05:40:12;19.20;;;11.93;;
36391;SDS011;22639;42.690;23.356;2022-12-18T05:42:38;11.33;;;7.80;;
36391;SDS011;22639;42.690;23.356;2022-12-18T05:45:03;18.37;;;11.40;;
36391;SDS011;22639;42.690;23.356;2022-12-18T05:47:29;15.10;;;9.77;;
36391;SDS011;22639;42.690;23.356;2022-12-18T05:49:54;21.07;;;10.63;;
36391;SDS011;22639;42.690;23.356;2022-12-18T05:52:19;14.23;;;10.33;;
36391;SDS011;22639;42.690;23.356;2022-12-18T05:54:45;17.47;;;10.87;;
36391;SDS011;22639;42.690;23.356;2022-12-18T05:57:10;17.27;;;10.83;;
36391;SDS011;22639;42.690;23.356;2022-12-18T05:59:35;21.33;;;11.73;;
36391;SDS011;22639;42.690;23.356;2022-12-18T06:02:00;16.40;;;10.70;;
36391;SDS011;22639;42.690;23.356;2022-12-18T06:04:26;14.77;;;9.73;;
36391;SDS011;22639;42.690;23.356;2022-12-18T06:06:52;17.47;;;11.13;;
36391;SDS011;22639;42.690;23.356;2022-12-18T06:09:17;15.90;;;9.33;;
36391;SDS011;22639;42.690;23.356;2022-12-18T06:11:42;21.33;;;11.40;;
36391;SDS011;22639;42.690;23.356;2022-12-18T06:14:08;17.27;;;11.07;;
36391;SDS011;22639;42.690;23.356;2022-12-18T06:16:33;21.13;;;11.20;;
36391;SDS011;22639;42.690;23.356;2022-12-18T06:18:59;15.80;;;9.93;;
36391;SDS011;22639;42.690;23.356;2022-12-18T06:21:25;16.63;;;9.87;;
36391;SDS011;22639;42.690;23.356;2022-12-18T06:23:50;17.63;;;8.87;;
36391;SDS011;22639;42.690;23.356;2022-12-18T06:26:15;17.73;;;10.53;;
36391;SDS011;22639;42.690;23.356;2022-12-18T06:28:41;19.23;;;10.83;;
36391;SDS011;22639;42.690;23.356;2022-12-18T06:31:06;16.57;;;10.97;;
36391;SDS011;22639;42.690;23.356;2022-12-18T06:33:32;16.83;;;9.43;;
36391;SDS011;22639;42.690;23.356;2022-12-18T06:36:01;18.27;;;11.47;;
36391;SDS011;22639;42.690;23.356;2022-12-18T06:38:27;15.70;;;10.40;;
36391;SDS011;22639;42.690;23.356;2022-12-18T06:40:52;14.20;;;8.53;;
36391;SDS011;22639;42.690;23.356;2022-12-18T06:43:18;20.30;;;11.93;;
36391;SDS011;22639;42.690;23.356;2022-12-18T06:45:43;17.27;;;10.37;;
36391;SDS011;22639;42.690;23.356;2022-12-18T06:48:08;14.60;;;8.77;;
36391;SDS011;22639;42.690;23.356;2022-12-18T06:50:34;18.50;;;11.20;;
36391;SDS011;22639;42.690;23.356;2022-12-18T06:52:59;17.60;;;10.87;;
36391;SDS011;22639;42.690;23.356;2022-12-18T06:55:24;14.70;;;8.53;;
36391;SDS011;22639;42.690;23.356;2022-12-18T06:57:50;20.67;;;12.37;;
36391;SDS011;22639;42.690;23.356;2022-12-18T07:00:17;17.90;;;11.33;;
36391;SDS011;22639;42.690;23.356;2022-12-18T07:02:42;21.07;;;11.23;;
36391;SDS011;22639;42.690;23.356;2022-12-18T07:05:07;17.17;;;10.40;;
36391;SDS011;22639;42.690;23.356;2022-12-18T07:07:33;20.00;;;10.87;;
36391;SDS011;22639;42.690;23.356;2022-12-18T07:09:59;21.17;;;11.43;;
36391;SDS011;22639;42.690;23.356;2022-12-18T07:12:24;19.63;;;10.67;;
36391;SDS011;22639;42.690;23.356;2022-12-18T07:14:49;13.43;;;8.70;;
36391;SDS011;22639;42.690;23.356;2022-12-18T07:17:14;19.60;;;11.47;;
36391;SDS011;22639;42.690;23.356;2022-12-18T07:19:40;16.57;;;10.57;;
36391;SDS011;22639;42.690;23.356;2022-12-18T07:22:05;16.43;;;9.73;;
36391;SDS011;22639;42.690;23.356;2022-12-18T07:24:32;20.80;;;12.53;;
36391;SDS011;22639;42.690;23.356;2022-12-18T07:26:57;21.03;;;11.73;;
36391;SDS011;22639;42.690;23.356;2022-12-18T07:29:22;21.63;;;12.63;;
36391;SDS011;22639;42.690;23.356;2022-12-18T07:31:47;16.73;;;11.47;;
36391;SDS011;22639;42.690;23.356;2022-12-18T07:34:16;21.67;;;10.97;;
36391;SDS011;22639;42.690;23.356;2022-12-18T07:36:41;18.77;;;10.53;;
36391;SDS011;22639;42.690;23.356;2022-12-18T07:39:07;20.33;;;12.43;;
36391;SDS011;22639;42.690;23.356;2022-12-18T07:41:33;16.43;;;10.43;;
36391;SDS011;22639;42.690;23.356;2022-12-18T07:43:59;21.00;;;13.40;;
36391;SDS011;22639;42.690;23.356;2022-12-18T07:46:24;18.77;;;11.20;;
36391;SDS011;22639;42.690;23.356;2022-12-18T07:48:50;15.73;;;10.80;;
36391;SDS011;22639;42.690;23.356;2022-12-18T07:51:19;20.07;;;10.63;;
36391;SDS011;22639;42.690;23.356;2022-12-18T07:53:45;22.47;;;12.87;;
36391;SDS011;22639;42.690;23.356;2022-12-18T07:56:11;12.77;;;8.57;;
36391;SDS011;22639;42.690;23.356;2022-12-18T07:58:36;17.73;;;10.73;;
36391;SDS011;22639;42.690;23.356;2022-12-18T08:01:03;22.53;;;14.00;;
36391;SDS011;22639;42.690;23.356;2022-12-18T08:03:28;23.23;;;13.33;;
36391;SDS011;22639;42.690;23.356;2022-12-18T08:05:57;21.47;;;13.53;;
36391;SDS011;22639;42.690;23.356;2022-12-18T08:08:22;21.23;;;12.77;;
36391;SDS011;22639;42.690;23.356;2022-12-18T08:10:48;25.57;;;13.40;;
36391;SDS011;22639;42.690;23.356;2022-12-18T08:13:13;24.03;;;13.67;;
36391;SDS011;22639;42.690;23.356;2022-12-18T08:15:38;20.03;;;12.33;;
36391;SDS011;22639;42.690;23.356;2022-12-18T08:18:03;22.43;;;13.63;;
36391;SDS011;22639;42.690;23.356;2022-12-18T08:20:29;21.50;;;10.97;;
36391;SDS011;22639;42.690;23.356;2022-12-18T08:22:54;22.83;;;14.00;;
36391;SDS011;22639;42.690;23.356;2022-12-18T08:25:19;26.57;;;15.30;;
36391;SDS011;22639;42.690;23.356;2022-12-18T08:27:44;24.00;;;14.77;;
36391;SDS011;22639;42.690;23.356;2022-12-18T08:30:10;24.30;;;13.50;;
36391;SDS011;22639;42.690;23.356;2022-12-18T08:32:35;24.77;;;14.50;;
36391;SDS011;22639;42.690;23.356;2022-12-18T08:35:01;21.20;;;12.40;;
36391;SDS011;22639;42.690;23.356;2022-12-18T08:37:26;24.70;;;11.37;;
36391;SDS011;22639;42.690;23.356;2022-12-18T08:39:51;23.77;;;14.77;;
36391;SDS011;22639;42.690;23.356;2022-12-18T08:42:17;23.33;;;13.63;;
36391;SDS011;22639;42.690;23.356;2022-12-18T08:45:04;22.50;;;12.57;;
36391;SDS011;22639;42.690;23.356;2022-12-18T08:47:29;21.50;;;13.27;;
36391;SDS011;22639;42.690;23.356;2022-12-18T08:49:54;17.27;;;10.73;;
36391;SDS011;22639;42.690;23.356;2022-12-18T08:52:19;18.13;;;12.87;;
36391;SDS011;22639;42.690;23.356;2022-12-18T08:54:45;22.47;;;12.40;;
36391;SDS011;22639;42.690;23.356;2022-12-18T08:57:11;18.73;;;11.50;;
36391;SDS011;22639;42.690;23.356;2022-12-18T08:59:36;20.47;;;12.97;;
36391;SDS011;22639;42.690;23.356;2022-12-18T09:02:02;19.17;;;11.93;;
36391;SDS011;22639;42.690;23.356;2022-12-18T09:04:27;21.47;;;13.10;;
36391;SDS011;22639;42.690;23.356;2022-12-18T09:06:52;20.60;;;12.43;;
36391;SDS011;22639;42.690;23.356;2022-12-18T09:09:17;20.87;;;11.50;;
36391;SDS011;22639;42.690;23.356;2022-12-18T09:11:43;18.60;;;12.00;;
36391;SDS011;22639;42.690;23.356;2022-12-18T09:14:08;22.43;;;11.57;;
36391;SDS011;22639;42.690;23.356;2022-12-18T09:16:33;18.57;;;11.97;;
36391;SDS011;22639;42.690;23.356;2022-12-18T09:19:00;17.50;;;10.27;;
36391;SDS011;22639;42.690;23.356;2022-12-18T09:21:26;20.10;;;11.70;;
36391;SDS011;22639;42.690;23.356;2022-12-18T09:23:52;16.90;;;10.53;;
36391;SDS011;22639;42.690;23.356;2022-12-18T09:26:18;18.90;;;11.47;;
36391;SDS011;22639;42.690;23.356;2022-12-18T09:28:43;19.53;;;11.33;;
36391;SDS011;22639;42.690;23.356;2022-12-18T09:31:10;24.93;;;12.37;;
36391;SDS011;22639;42.690;23.356;2022-12-18T09:33:39;19.80;;;10.87;;
36391;SDS011;22639;42.690;23.356;2022-12-18T09:36:05;21.10;;;12.43;;
36391;SDS011;22639;42.690;23.356;2022-12-18T09:38:31;17.27;;;12.60;;
36391;SDS011;22639;42.690;23.356;2022-12-18T09:40:59;17.03;;;8.90;;
36391;SDS011;22639;42.690;23.356;2022-12-18T09:43:29;20.17;;;11.23;;
36391;SDS011;22639;42.690;23.356;2022-12-18T09:46:01;19.43;;;12.63;;
36391;SDS011;22639;42.690;23.356;2022-12-18T09:48:31;17.17;;;11.07;;
36391;SDS011;22639;42.690;23.356;2022-12-18T09:51:00;12.80;;;8.50;;
36391;SDS011;22639;42.690;23.356;2022-12-18T09:53:27;11.23;;;8.97;;
36391;SDS011;22639;42.690;23.356;2022-12-18T09:55:54;17.73;;;10.33;;
36391;SDS011;22639;42.690;23.356;2022-12-18T09:58:26;20.20;;;11.10;;
36391;SDS011;22639;42.690;23.356;2022-12-18T10:00:53;12.73;;;8.17;;
36391;SDS011;22639;42.690;23.356;2022-12-18T10:03:19;14.30;;;9.70;;
36391;SDS011;22639;42.690;23.356;2022-12-18T10:11:32;17.33;;;10.83;;
36391;SDS011;22639;42.690;23.356;2022-12-18T10:14:06;20.43;;;11.30;;
36391;SDS011;22639;42.690;23.356;2022-12-18T10:21:39;15.47;;;10.67;;
36391;SDS011;22639;42.690;23.356;2022-12-18T10:26:55;20.17;;;11.87;;
36391;SDS011;22639;42.690;23.356;2022-12-18T10:29:44;20.00;;;12.00;;
36391;SDS011;22639;42.690;23.356;2022-12-18T10:32:17;16.47;;;10.93;;
36391;SDS011;22639;42.690;23.356;2022-12-18T10:34:46;12.60;;;7.23;;
36391;SDS011;22639;42.690;23.356;2022-12-18T10:37:16;18.10;;;8.80;;
36391;SDS011;22639;42.690;23.356;2022-12-18T10:39:43;12.47;;;7.50;;
36391;SDS011;22639;42.690;23.356;2022-12-18T10:42:19;16.23;;;10.50;;
36391;SDS011;22639;42.690;23.356;2022-12-18T10:44:45;16.80;;;9.97;;
36391;SDS011;22639;42.690;23.356;2022-12-18T10:47:17;16.63;;;9.37;;
36391;SDS011;22639;42.690;23.356;2022-12-18T10:49:50;17.10;;;11.10;;
36391;SDS011;22639;42.690;23.356;2022-12-18T10:52:21;20.57;;;12.77;;
36391;SDS011;22639;42.690;23.356;2022-12-18T10:54:48;23.30;;;12.10;;
36391;SDS011;22639;42.690;23.356;2022-12-18T10:57:14;20.50;;;13.00;;
36391;SDS011;22639;42.690;23.356;2022-12-18T10:59:50;20.87;;;12.00;;
36391;SDS011;22639;42.690;23.356;2022-12-18T11:02:26;18.67;;;10.83;;
36391;SDS011;22639;42.690;23.356;2022-12-18T11:04:52;26.37;;;12.47;;
36391;SDS011;22639;42.690;23.356;2022-12-18T11:07:17;19.13;;;11.57;;
36391;SDS011;22639;42.690;23.356;2022-12-18T11:09:43;18.40;;;11.17;;
36391;SDS011;22639;42.690;23.356;2022-12-18T11:12:15;19.50;;;12.53;;
36391;SDS011;22639;42.690;23.356;2022-12-18T11:14:51;17.67;;;12.17;;
36391;SDS011;22639;42.690;23.356;2022-12-18T11:17:20;15.87;;;10.20;;
36391;SDS011;22639;42.690;23.356;2022-12-18T11:19:51;16.20;;;10.17;;
36391;SDS011;22639;42.690;23.356;2022-12-18T11:22:27;16.60;;;10.33;;
36391;SDS011;22639;42.690;23.356;2022-12-18T11:24:54;20.40;;;12.03;;
36391;SDS011;22639;42.690;23.356;2022-12-18T11:27:20;20.17;;;11.73;;
36391;SDS011;22639;42.690;23.356;2022-12-18T11:29:45;16.00;;;10.73;;
36391;SDS011;22639;42.690;23.356;2022-12-18T11:34:49;21.07;;;12.20;;
36391;SDS011;22639;42.690;23.356;2022-12-18T11:37:16;18.13;;;11.10;;
36391;SDS011;22639;42.690;23.356;2022-12-18T11:39:55;21.73;;;10.90;;
36391;SDS011;22639;42.690;23.356;2022-12-18T11:44:50;16.70;;;9.37;;
36391;SDS011;22639;42.690;23.356;2022-12-18T11:47:21;22.80;;;11.73;;
36391;SDS011;22639;42.690;23.356;2022-12-18T11:49:50;20.70;;;11.90;;
36391;SDS011;22639;42.690;23.356;2022-12-18T11:52:21;22.27;;;11.90;;
36391;SDS011;22639;42.690;23.356;2022-12-18T11:54:50;20.63;;;12.47;;
36391;SDS011;22639;42.690;23.356;2022-12-18T11:59:48;18.70;;;10.37;;
36391;SDS011;22639;42.690;23.356;2022-12-18T12:10:01;17.57;;;11.03;;
36391;SDS011;22639;42.690;23.356;2022-12-18T12:12:38;17.67;;;10.47;;
36391;SDS011;22639;42.690;23.356;2022-12-18T12:20:13;21.33;;;13.23;;
36391;SDS011;22639;42.690;23.356;2022-12-18T12:25:38;18.30;;;11.20;;
36391;SDS011;22639;42.690;23.356;2022-12-18T12:30:35;21.73;;;11.83;;
36391;SDS011;22639;42.690;23.356;2022-12-18T12:36:00;20.10;;;10.80;;
36391;SDS011;22639;42.690;23.356;2022-12-18T12:38:26;18.67;;;11.23;;
36391;SDS011;22639;42.690;23.356;2022-12-18T12:40:59;20.70;;;10.87;;
36391;SDS011;22639;42.690;23.356;2022-12-18T12:43:38;22.90;;;11.87;;
36391;SDS011;22639;42.690;23.356;2022-12-18T12:46:07;21.07;;;10.33;;
36391;SDS011;22639;42.690;23.356;2022-12-18T12:53:51;17.43;;;9.17;;
36391;SDS011;22639;42.690;23.356;2022-12-18T12:56:18;20.73;;;12.30;;
36391;SDS011;22639;42.690;23.356;2022-12-18T13:06:33;20.83;;;11.60;;
36391;SDS011;22639;42.690;23.356;2022-12-18T13:09:00;23.37;;;12.43;;
36391;SDS011;22639;42.690;23.356;2022-12-18T13:11:28;25.13;;;12.80;;
36391;SDS011;22639;42.690;23.356;2022-12-18T13:14:20;18.83;;;11.07;;
36391;SDS011;22639;42.690;23.356;2022-12-18T13:16:46;17.83;;;9.03;;
36391;SDS011;22639;42.690;23.356;2022-12-18T13:19:20;20.87;;;12.70;;
36391;SDS011;22639;42.690;23.356;2022-12-18T13:21:51;20.20;;;12.40;;
36391;SDS011;22639;42.690;23.356;2022-12-18T13:24:27;18.93;;;11.30;;
36391;SDS011;22639;42.690;23.356;2022-12-18T13:26:54;18.37;;;10.90;;
36391;SDS011;22639;42.690;23.356;2022-12-18T13:32:10;20.13;;;11.53;;
36391;SDS011;22639;42.690;23.356;2022-12-18T13:34:43;24.43;;;12.07;;
36391;SDS011;22639;42.690;23.356;2022-12-18T13:37:51;20.43;;;11.60;;
36391;SDS011;22639;42.690;23.356;2022-12-18T13:39:57;18.60;;;12.20;;
36391;SDS011;22639;42.690;23.356;2022-12-18T13:46:16;17.80;;;11.30;;
36391;SDS011;22639;42.690;23.356;2022-12-18T13:48:01;21.10;;;12.10;;
36391;SDS011;22639;42.690;23.356;2022-12-18T13:50:27;25.10;;;13.03;;
36391;SDS011;22639;42.690;23.356;2022-12-18T13:52:52;21.40;;;11.67;;
36391;SDS011;22639;42.690;23.356;2022-12-18T13:55:19;17.70;;;11.53;;
36391;SDS011;22639;42.690;23.356;2022-12-18T13:57:45;26.30;;;11.87;;
36391;SDS011;22639;42.690;23.356;2022-12-18T14:00:29;20.93;;;13.37;;
36391;SDS011;22639;42.690;23.356;2022-12-18T14:02:55;18.70;;;11.23;;
36391;SDS011;22639;42.690;23.356;2022-12-18T14:05:27;19.87;;;12.67;;
36391;SDS011;22639;42.690;23.356;2022-12-18T14:07:59;20.10;;;10.67;;
36391;SDS011;22639;42.690;23.356;2022-12-18T14:10:25;20.43;;;11.70;;
36391;SDS011;22639;42.690;23.356;2022-12-18T14:12:50;16.53;;;10.53;;
36391;SDS011;22639;42.690;23.356;2022-12-18T14:15:39;16.77;;;9.87;;
36391;SDS011;22639;42.690;23.356;2022-12-18T14:18:18;16.80;;;10.83;;
36391;SDS011;22639;42.690;23.356;2022-12-18T14:20:44;22.43;;;12.50;;
36391;SDS011;22639;42.690;23.356;2022-12-18T14:26:27;17.90;;;9.10;;
36391;SDS011;22639;42.690;23.356;2022-12-18T14:28:59;16.43;;;9.67;;
36391;SDS011;22639;42.690;23.356;2022-12-18T14:31:27;20.17;;;11.17;;
36391;SDS011;22639;42.690;23.356;2022-12-18T14:33:53;19.70;;;10.50;;
36391;SDS011;22639;42.690;23.356;2022-12-18T14:36:19;17.37;;;10.77;;
36391;SDS011;22639;42.690;23.356;2022-12-18T14:38:48;18.17;;;11.53;;
36391;SDS011;22639;42.690;23.356;2022-12-18T14:41:15;23.20;;;12.33;;
36391;SDS011;22639;42.690;23.356;2022-12-18T14:43:41;18.30;;;11.17;;
36391;SDS011;22639;42.690;23.356;2022-12-18T14:48:51;17.57;;;10.17;;
36391;SDS011;22639;42.690;23.356;2022-12-18T14:51:20;17.97;;;11.00;;
36391;SDS011;22639;42.690;23.356;2022-12-18T14:53:47;18.17;;;9.43;;
36391;SDS011;22639;42.690;23.356;2022-12-18T14:56:17;19.30;;;11.50;;
36391;SDS011;22639;42.690;23.356;2022-12-18T14:58:46;15.70;;;9.93;;
36391;SDS011;22639;42.690;23.356;2022-12-18T15:01:25;17.73;;;10.57;;
36391;SDS011;22639;42.690;23.356;2022-12-18T15:03:51;15.60;;;9.40;;
36391;SDS011;22639;42.690;23.356;2022-12-18T15:06:18;16.10;;;11.20;;
36391;SDS011;22639;42.690;23.356;2022-12-18T15:08:48;22.03;;;11.60;;
36391;SDS011;22639;42.690;23.356;2022-12-18T15:13:58;14.57;;;9.37;;
36391;SDS011;22639;42.690;23.356;2022-12-18T15:16:25;16.70;;;9.90;;
36391;SDS011;22639;42.690;23.356;2022-12-18T15:18:50;14.87;;;9.50;;
36391;SDS011;22639;42.690;23.356;2022-12-18T15:21:17;16.80;;;9.40;;
36391;SDS011;22639;42.690;23.356;2022-12-18T15:23:52;21.57;;;11.20;;
36391;SDS011;22639;42.690;23.356;2022-12-18T15:26:18;18.20;;;10.10;;
36391;SDS011;22639;42.690;23.356;2022-12-18T15:28:45;18.23;;;11.33;;
36391;SDS011;22639;42.690;23.356;2022-12-18T15:33:38;18.90;;;10.17;;
36391;SDS011;22639;42.690;23.356;2022-12-18T15:36:04;18.80;;;10.73;;
36391;SDS011;22639;42.690;23.356;2022-12-18T15:38:30;19.03;;;10.20;;
36391;SDS011;22639;42.690;23.356;2022-12-18T15:40:56;17.27;;;10.17;;
36391;SDS011;22639;42.690;23.356;2022-12-18T15:43:22;16.00;;;10.10;;
36391;SDS011;22639;42.690;23.356;2022-12-18T15:46:03;16.13;;;10.87;;
36391;SDS011;22639;42.690;23.356;2022-12-18T15:48:29;22.63;;;10.73;;
36391;SDS011;22639;42.690;23.356;2022-12-18T15:50:55;21.10;;;11.83;;
36391;SDS011;22639;42.690;23.356;2022-12-18T15:53:22;15.83;;;8.90;;
36391;SDS011;22639;42.690;23.356;2022-12-18T15:55:47;21.73;;;11.83;;
36391;SDS011;22639;42.690;23.356;2022-12-18T15:58:31;21.00;;;10.93;;
36391;SDS011;22639;42.690;23.356;2022-12-18T16:00:57;17.00;;;8.77;;
36391;SDS011;22639;42.690;23.356;2022-12-18T16:03:23;18.90;;;11.07;;